sensor_id;sensor_type;location;lat;lon;timestamp;P1;durP1;ratioP1;P2;durP2;ratioP2
61702;SDS011;47622;47.726;3.298;2022-09-09T00:00:23;8.68;;;1.70;;
61702;SDS011;47622;47.726;3.298;2022-09-09T00:02:54;6.88;;;1.35;;
61702;SDS011;47622;47.726;3.298;2022-09-09T00:08:02;6.97;;;1.80;;
61702;SDS011;47622;47.726;3.298;2022-09-09T00:10:32;5.97;;;2.05;;
61702;SDS011;47622;47.726;3.298;2022-09-09T00:16:27;5.00;;;1.60;;
61702;SDS011;47622;47.726;3.298;2022-09-09T00:18:47;9.98;;;1.88;;
61702;SDS011;47622;47.726;3.298;2022-09-09T00:21:35;7.65;;;1.90;;
61702;SDS011;47622;47.726;3.298;2022-09-09T00:24:23;8.43;;;2.00;;
61702;SDS011;47622;47.726;3.298;2022-09-09T00:26:59;9.30;;;1.77;;
61702;SDS011;47622;47.726;3.298;2022-09-09T00:29:43;13.23;;;1.85;;
61702;SDS011;47622;47.726;3.298;2022-09-09T00:34:59;4.93;;;2.03;;
61702;SDS011;47622;47.726;3.298;2022-09-09T00:40:01;6.78;;;1.70;;
61702;SDS011;47622;47.726;3.298;2022-09-09T00:45:15;6.95;;;1.73;;
61702;SDS011;47622;47.726;3.298;2022-09-09T00:47:56;5.50;;;1.40;;
61702;SDS011;47622;47.726;3.298;2022-09-09T00:56:05;5.45;;;1.60;;
61702;SDS011;47622;47.726;3.298;2022-09-09T00:58:53;8.25;;;1.80;;
61702;SDS011;47622;47.726;3.298;2022-09-09T01:01:29;4.97;;;1.77;;
61702;SDS011;47622;47.726;3.298;2022-09-09T01:03:55;5.00;;;1.42;;
61702;SDS011;47622;47.726;3.298;2022-09-09T01:06:29;6.45;;;1.52;;
61702;SDS011;47622;47.726;3.298;2022-09-09T01:19:58;5.38;;;1.55;;
61702;SDS011;47622;47.726;3.298;2022-09-09T01:27:51;7.70;;;2.35;;
61702;SDS011;47622;47.726;3.298;2022-09-09T01:30:20;5.07;;;2.03;;
61702;SDS011;47622;47.726;3.298;2022-09-09T01:32:48;5.57;;;1.33;;
61702;SDS011;47622;47.726;3.298;2022-09-09T01:38:09;4.57;;;1.58;;
61702;SDS011;47622;47.726;3.298;2022-09-09T01:40:35;6.53;;;1.65;;
61702;SDS011;47622;47.726;3.298;2022-09-09T01:43:01;7.07;;;1.50;;
61702;SDS011;47622;47.726;3.298;2022-09-09T01:45:28;8.52;;;1.63;;
61702;SDS011;47622;47.726;3.298;2022-09-09T01:47:54;5.90;;;1.70;;
61702;SDS011;47622;47.726;3.298;2022-09-09T01:50:21;6.60;;;1.77;;
61702;SDS011;47622;47.726;3.298;2022-09-09T01:52:48;7.28;;;2.05;;
61702;SDS011;47622;47.726;3.298;2022-09-09T01:55:18;5.63;;;1.40;;
61702;SDS011;47622;47.726;3.298;2022-09-09T02:00:23;11.27;;;2.33;;
61702;SDS011;47622;47.726;3.298;2022-09-09T02:08:08;6.38;;;1.63;;
61702;SDS011;47622;47.726;3.298;2022-09-09T02:10:42;11.38;;;1.95;;
61702;SDS011;47622;47.726;3.298;2022-09-09T02:13:14;4.95;;;1.50;;
61702;SDS011;47622;47.726;3.298;2022-09-09T02:15:45;5.80;;;1.85;;
61702;SDS011;47622;47.726;3.298;2022-09-09T02:18:18;7.10;;;1.70;;
61702;SDS011;47622;47.726;3.298;2022-09-09T02:20:49;6.05;;;1.80;;
61702;SDS011;47622;47.726;3.298;2022-09-09T02:23:17;8.48;;;1.63;;
61702;SDS011;47622;47.726;3.298;2022-09-09T02:25:44;8.18;;;1.65;;
61702;SDS011;47622;47.726;3.298;2022-09-09T02:28:11;8.68;;;1.70;;
61702;SDS011;47622;47.726;3.298;2022-09-09T02:30:40;5.93;;;1.42;;
61702;SDS011;47622;47.726;3.298;2022-09-09T02:33:09;8.13;;;1.95;;
61702;SDS011;47622;47.726;3.298;2022-09-09T02:35:38;5.70;;;1.90;;
61702;SDS011;47622;47.726;3.298;2022-09-09T02:38:06;9.52;;;1.92;;
61702;SDS011;47622;47.726;3.298;2022-09-09T02:40:35;7.25;;;1.38;;
61702;SDS011;47622;47.726;3.298;2022-09-09T02:43:01;9.77;;;1.70;;
61702;SDS011;47622;47.726;3.298;2022-09-09T02:45:30;6.63;;;1.27;;
61702;SDS011;47622;47.726;3.298;2022-09-09T02:56:25;4.53;;;1.90;;
61702;SDS011;47622;47.726;3.298;2022-09-09T02:58:53;9.82;;;1.70;;
61702;SDS011;47622;47.726;3.298;2022-09-09T03:01:19;7.32;;;1.60;;
61702;SDS011;47622;47.726;3.298;2022-09-09T03:03:46;12.60;;;1.85;;
61702;SDS011;47622;47.726;3.298;2022-09-09T03:06:11;6.75;;;1.80;;
61702;SDS011;47622;47.726;3.298;2022-09-09T03:08:37;8.18;;;2.03;;
61702;SDS011;47622;47.726;3.298;2022-09-09T03:11:03;8.55;;;1.92;;
61702;SDS011;47622;47.726;3.298;2022-09-09T03:13:29;7.00;;;1.80;;
61702;SDS011;47622;47.726;3.298;2022-09-09T03:15:55;9.82;;;1.65;;
61702;SDS011;47622;47.726;3.298;2022-09-09T03:18:21;9.07;;;1.75;;
61702;SDS011;47622;47.726;3.298;2022-09-09T03:20:46;10.63;;;1.83;;
61702;SDS011;47622;47.726;3.298;2022-09-09T03:23:16;15.82;;;2.38;;
61702;SDS011;47622;47.726;3.298;2022-09-09T03:25:48;9.13;;;1.60;;
61702;SDS011;47622;47.726;3.298;2022-09-09T03:28:15;10.10;;;2.55;;
61702;SDS011;47622;47.726;3.298;2022-09-09T03:30:40;6.95;;;2.05;;
61702;SDS011;47622;47.726;3.298;2022-09-09T03:33:06;12.27;;;2.42;;
61702;SDS011;47622;47.726;3.298;2022-09-09T03:35:32;7.60;;;1.90;;
61702;SDS011;47622;47.726;3.298;2022-09-09T03:37:57;4.72;;;1.52;;
61702;SDS011;47622;47.726;3.298;2022-09-09T03:40:23;11.15;;;2.28;;
61702;SDS011;47622;47.726;3.298;2022-09-09T03:42:49;7.55;;;1.83;;
61702;SDS011;47622;47.726;3.298;2022-09-09T03:45:14;9.75;;;2.25;;
61702;SDS011;47622;47.726;3.298;2022-09-09T03:47:40;5.97;;;1.73;;
61702;SDS011;47622;47.726;3.298;2022-09-09T03:50:06;9.75;;;2.20;;
61702;SDS011;47622;47.726;3.298;2022-09-09T03:52:37;8.45;;;1.40;;
61702;SDS011;47622;47.726;3.298;2022-09-09T03:55:05;8.13;;;1.90;;
61702;SDS011;47622;47.726;3.298;2022-09-09T03:57:32;5.28;;;1.90;;
61702;SDS011;47622;47.726;3.298;2022-09-09T04:00:00;9.43;;;1.80;;
61702;SDS011;47622;47.726;3.298;2022-09-09T04:02:30;9.77;;;2.38;;
61702;SDS011;47622;47.726;3.298;2022-09-09T04:04:55;7.47;;;2.28;;
61702;SDS011;47622;47.726;3.298;2022-09-09T04:07:21;9.68;;;1.90;;
61702;SDS011;47622;47.726;3.298;2022-09-09T04:09:47;9.95;;;2.30;;
61702;SDS011;47622;47.726;3.298;2022-09-09T04:12:13;9.68;;;1.88;;
61702;SDS011;47622;47.726;3.298;2022-09-09T04:14:39;12.77;;;1.88;;
61702;SDS011;47622;47.726;3.298;2022-09-09T04:17:04;9.27;;;1.83;;
61702;SDS011;47622;47.726;3.298;2022-09-09T04:19:31;10.65;;;2.15;;
61702;SDS011;47622;47.726;3.298;2022-09-09T04:21:57;8.75;;;2.08;;
61702;SDS011;47622;47.726;3.298;2022-09-09T04:24:24;6.90;;;1.90;;
61702;SDS011;47622;47.726;3.298;2022-09-09T04:26:49;9.43;;;2.03;;
61702;SDS011;47622;47.726;3.298;2022-09-09T04:29:15;6.40;;;1.80;;
61702;SDS011;47622;47.726;3.298;2022-09-09T04:31:41;10.70;;;2.00;;
61702;SDS011;47622;47.726;3.298;2022-09-09T04:34:08;10.55;;;2.25;;
61702;SDS011;47622;47.726;3.298;2022-09-09T04:36:34;8.63;;;1.95;;
61702;SDS011;47622;47.726;3.298;2022-09-09T04:39:00;9.05;;;1.75;;
61702;SDS011;47622;47.726;3.298;2022-09-09T04:41:26;10.55;;;2.33;;
61702;SDS011;47622;47.726;3.298;2022-09-09T04:43:52;8.65;;;1.70;;
61702;SDS011;47622;47.726;3.298;2022-09-09T04:46:19;13.88;;;2.20;;
61702;SDS011;47622;47.726;3.298;2022-09-09T04:48:47;12.43;;;2.53;;
61702;SDS011;47622;47.726;3.298;2022-09-09T04:51:14;11.10;;;2.10;;
61702;SDS011;47622;47.726;3.298;2022-09-09T04:53:40;8.60;;;2.15;;
61702;SDS011;47622;47.726;3.298;2022-09-09T04:56:07;15.82;;;2.47;;
61702;SDS011;47622;47.726;3.298;2022-09-09T04:58:38;8.18;;;1.83;;
61702;SDS011;47622;47.726;3.298;2022-09-09T05:03:31;7.97;;;2.03;;
61702;SDS011;47622;47.726;3.298;2022-09-09T05:06:04;8.20;;;1.92;;
61702;SDS011;47622;47.726;3.298;2022-09-09T05:08:31;9.80;;;2.03;;
61702;SDS011;47622;47.726;3.298;2022-09-09T05:10:57;7.20;;;2.00;;
61702;SDS011;47622;47.726;3.298;2022-09-09T05:13:25;9.07;;;2.20;;
61702;SDS011;47622;47.726;3.298;2022-09-09T05:15:54;10.13;;;2.08;;
61702;SDS011;47622;47.726;3.298;2022-09-09T05:18:20;9.88;;;2.05;;
61702;SDS011;47622;47.726;3.298;2022-09-09T05:20:50;8.45;;;1.95;;
61702;SDS011;47622;47.726;3.298;2022-09-09T05:23:16;9.15;;;2.03;;
61702;SDS011;47622;47.726;3.298;2022-09-09T05:25:42;7.60;;;2.00;;
61702;SDS011;47622;47.726;3.298;2022-09-09T05:28:08;7.15;;;2.20;;
61702;SDS011;47622;47.726;3.298;2022-09-09T05:30:35;9.52;;;2.08;;
61702;SDS011;47622;47.726;3.298;2022-09-09T05:33:00;8.88;;;1.90;;
61702;SDS011;47622;47.726;3.298;2022-09-09T05:35:26;6.75;;;1.80;;
61702;SDS011;47622;47.726;3.298;2022-09-09T05:37:52;11.73;;;2.65;;
61702;SDS011;47622;47.726;3.298;2022-09-09T05:40:17;9.90;;;2.35;;
61702;SDS011;47622;47.726;3.298;2022-09-09T05:42:43;11.95;;;2.50;;
61702;SDS011;47622;47.726;3.298;2022-09-09T05:45:09;9.90;;;2.15;;
61702;SDS011;47622;47.726;3.298;2022-09-09T05:47:35;4.70;;;1.83;;
61702;SDS011;47622;47.726;3.298;2022-09-09T05:50:02;8.07;;;2.03;;
61702;SDS011;47622;47.726;3.298;2022-09-09T05:52:29;10.80;;;2.47;;
61702;SDS011;47622;47.726;3.298;2022-09-09T05:54:56;9.93;;;2.38;;
61702;SDS011;47622;47.726;3.298;2022-09-09T05:57:22;7.53;;;2.03;;
61702;SDS011;47622;47.726;3.298;2022-09-09T05:59:48;15.00;;;2.95;;
61702;SDS011;47622;47.726;3.298;2022-09-09T06:02:14;8.57;;;2.30;;
61702;SDS011;47622;47.726;3.298;2022-09-09T06:04:40;10.73;;;2.10;;
61702;SDS011;47622;47.726;3.298;2022-09-09T06:07:06;12.82;;;2.30;;
61702;SDS011;47622;47.726;3.298;2022-09-09T06:09:35;12.52;;;2.35;;
61702;SDS011;47622;47.726;3.298;2022-09-09T06:12:01;10.40;;;1.92;;
61702;SDS011;47622;47.726;3.298;2022-09-09T06:14:26;11.63;;;2.30;;
61702;SDS011;47622;47.726;3.298;2022-09-09T06:16:52;5.97;;;1.92;;
61702;SDS011;47622;47.726;3.298;2022-09-09T06:19:18;9.00;;;2.03;;
61702;SDS011;47622;47.726;3.298;2022-09-09T06:21:44;11.93;;;2.38;;
61702;SDS011;47622;47.726;3.298;2022-09-09T06:24:10;10.95;;;2.70;;
61702;SDS011;47622;47.726;3.298;2022-09-09T06:26:38;10.77;;;1.95;;
61702;SDS011;47622;47.726;3.298;2022-09-09T06:29:08;7.38;;;1.73;;
61702;SDS011;47622;47.726;3.298;2022-09-09T06:31:35;9.10;;;2.28;;
61702;SDS011;47622;47.726;3.298;2022-09-09T06:34:02;5.32;;;1.80;;
61702;SDS011;47622;47.726;3.298;2022-09-09T06:36:33;9.07;;;2.30;;
61702;SDS011;47622;47.726;3.298;2022-09-09T06:39:01;9.10;;;2.03;;
61702;SDS011;47622;47.726;3.298;2022-09-09T06:41:27;8.90;;;2.15;;
61702;SDS011;47622;47.726;3.298;2022-09-09T06:43:54;12.07;;;2.40;;
61702;SDS011;47622;47.726;3.298;2022-09-09T06:46:26;6.50;;;1.90;;
61702;SDS011;47622;47.726;3.298;2022-09-09T06:48:55;9.57;;;2.10;;
61702;SDS011;47622;47.726;3.298;2022-09-09T06:51:23;9.10;;;2.30;;
61702;SDS011;47622;47.726;3.298;2022-09-09T06:53:56;8.07;;;1.98;;
61702;SDS011;47622;47.726;3.298;2022-09-09T06:56:27;7.13;;;1.65;;
61702;SDS011;47622;47.726;3.298;2022-09-09T06:58:58;8.77;;;1.48;;
61702;SDS011;47622;47.726;3.298;2022-09-09T07:01:32;6.57;;;1.75;;
61702;SDS011;47622;47.726;3.298;2022-09-09T07:03:59;8.73;;;1.70;;
61702;SDS011;47622;47.726;3.298;2022-09-09T07:06:29;11.68;;;2.05;;
61702;SDS011;47622;47.726;3.298;2022-09-09T07:08:58;7.00;;;1.90;;
61702;SDS011;47622;47.726;3.298;2022-09-09T07:11:26;11.15;;;2.38;;
61702;SDS011;47622;47.726;3.298;2022-09-09T07:13:53;7.40;;;1.60;;
61702;SDS011;47622;47.726;3.298;2022-09-09T07:16:20;11.25;;;2.10;;
61702;SDS011;47622;47.726;3.298;2022-09-09T07:18:50;7.03;;;2.15;;
61702;SDS011;47622;47.726;3.298;2022-09-09T07:21:17;12.93;;;2.08;;
61702;SDS011;47622;47.726;3.298;2022-09-09T07:23:44;8.23;;;2.00;;
61702;SDS011;47622;47.726;3.298;2022-09-09T07:28:47;7.10;;;2.20;;
61702;SDS011;47622;47.726;3.298;2022-09-09T07:31:17;10.63;;;2.33;;
61702;SDS011;47622;47.726;3.298;2022-09-09T07:33:47;10.73;;;1.90;;
61702;SDS011;47622;47.726;3.298;2022-09-09T07:39:08;14.07;;;2.75;;
61702;SDS011;47622;47.726;3.298;2022-09-09T07:41:36;11.48;;;2.88;;
61702;SDS011;47622;47.726;3.298;2022-09-09T07:44:08;10.25;;;2.10;;
61702;SDS011;47622;47.726;3.298;2022-09-09T07:46:36;11.30;;;2.00;;
61702;SDS011;47622;47.726;3.298;2022-09-09T07:49:04;10.30;;;2.53;;
61702;SDS011;47622;47.726;3.298;2022-09-09T07:51:33;10.40;;;2.40;;
61702;SDS011;47622;47.726;3.298;2022-09-09T07:54:06;10.30;;;2.30;;
61702;SDS011;47622;47.726;3.298;2022-09-09T07:56:34;13.18;;;2.58;;
61702;SDS011;47622;47.726;3.298;2022-09-09T07:59:00;14.20;;;3.58;;
61702;SDS011;47622;47.726;3.298;2022-09-09T08:01:27;9.73;;;2.15;;
61702;SDS011;47622;47.726;3.298;2022-09-09T08:03:56;9.70;;;2.30;;
61702;SDS011;47622;47.726;3.298;2022-09-09T08:06:26;12.98;;;2.10;;
61702;SDS011;47622;47.726;3.298;2022-09-09T08:08:54;10.40;;;2.47;;
61702;SDS011;47622;47.726;3.298;2022-09-09T08:11:21;10.70;;;2.35;;
61702;SDS011;47622;47.726;3.298;2022-09-09T08:13:49;12.10;;;2.30;;
61702;SDS011;47622;47.726;3.298;2022-09-09T08:16:18;9.63;;;2.08;;
61702;SDS011;47622;47.726;3.298;2022-09-09T08:18:47;8.10;;;1.88;;
61702;SDS011;47622;47.726;3.298;2022-09-09T08:21:29;14.38;;;2.35;;
61702;SDS011;47622;47.726;3.298;2022-09-09T08:23:57;8.77;;;2.55;;
61702;SDS011;47622;47.726;3.298;2022-09-09T08:26:25;7.90;;;2.03;;
61702;SDS011;47622;47.726;3.298;2022-09-09T08:28:56;10.80;;;1.83;;
61702;SDS011;47622;47.726;3.298;2022-09-09T08:31:25;6.45;;;1.70;;
61702;SDS011;47622;47.726;3.298;2022-09-09T08:33:55;9.38;;;1.58;;
61702;SDS011;47622;47.726;3.298;2022-09-09T08:36:25;9.18;;;2.03;;
61702;SDS011;47622;47.726;3.298;2022-09-09T08:38:52;7.70;;;1.67;;
61702;SDS011;47622;47.726;3.298;2022-09-09T08:58:11;6.15;;;1.27;;
61702;SDS011;47622;47.726;3.298;2022-09-09T09:00:45;6.60;;;1.33;;
61702;SDS011;47622;47.726;3.298;2022-09-09T09:11:40;6.53;;;1.30;;
61702;SDS011;47622;47.726;3.298;2022-09-09T09:14:16;6.70;;;1.58;;
61702;SDS011;47622;47.726;3.298;2022-09-09T09:17:11;8.10;;;1.30;;
61702;SDS011;47622;47.726;3.298;2022-09-09T09:19:44;6.45;;;1.50;;
61702;SDS011;47622;47.726;3.298;2022-09-09T09:22:34;5.15;;;1.55;;
61702;SDS011;47622;47.726;3.298;2022-09-09T09:28:03;5.00;;;1.20;;
61702;SDS011;47622;47.726;3.298;2022-09-09T09:30:36;7.15;;;1.45;;
61702;SDS011;47622;47.726;3.298;2022-09-09T09:33:14;9.00;;;1.35;;
61702;SDS011;47622;47.726;3.298;2022-09-09T09:35:45;4.97;;;1.60;;
61702;SDS011;47622;47.726;3.298;2022-09-09T09:38:17;5.85;;;1.30;;
61702;SDS011;47622;47.726;3.298;2022-09-09T09:40:48;7.88;;;1.30;;
61702;SDS011;47622;47.726;3.298;2022-09-09T09:43:18;5.82;;;1.30;;
61702;SDS011;47622;47.726;3.298;2022-09-09T09:48:14;4.95;;;1.45;;
61702;SDS011;47622;47.726;3.298;2022-09-09T09:50:50;5.25;;;1.40;;
61702;SDS011;47622;47.726;3.298;2022-09-09T09:53:29;4.85;;;1.17;;
61702;SDS011;47622;47.726;3.298;2022-09-09T09:58:31;10.75;;;1.70;;
61702;SDS011;47622;47.726;3.298;2022-09-09T10:01:22;8.25;;;2.03;;
61702;SDS011;47622;47.726;3.298;2022-09-09T10:03:52;6.63;;;1.40;;
61702;SDS011;47622;47.726;3.298;2022-09-09T10:06:31;6.72;;;1.48;;
61702;SDS011;47622;47.726;3.298;2022-09-09T10:09:03;6.00;;;1.30;;
61702;SDS011;47622;47.726;3.298;2022-09-09T10:14:21;12.75;;;1.75;;
61702;SDS011;47622;47.726;3.298;2022-09-09T10:16:59;3.90;;;1.52;;
61702;SDS011;47622;47.726;3.298;2022-09-09T10:19:40;6.00;;;1.70;;
61702;SDS011;47622;47.726;3.298;2022-09-09T10:36:39;4.28;;;1.40;;
61702;SDS011;47622;47.726;3.298;2022-09-09T10:42:05;4.88;;;1.50;;
61702;SDS011;47622;47.726;3.298;2022-09-09T10:56:07;5.65;;;1.23;;
61702;SDS011;47622;47.726;3.298;2022-09-09T10:58:40;4.85;;;1.20;;
61702;SDS011;47622;47.726;3.298;2022-09-09T11:03:52;4.38;;;1.20;;
61702;SDS011;47622;47.726;3.298;2022-09-09T11:06:25;5.88;;;1.20;;
61702;SDS011;47622;47.726;3.298;2022-09-09T11:08:57;4.28;;;1.48;;
61702;SDS011;47622;47.726;3.298;2022-09-09T11:11:36;4.55;;;1.35;;
61702;SDS011;47622;47.726;3.298;2022-09-09T11:14:12;5.35;;;1.27;;
61702;SDS011;47622;47.726;3.298;2022-09-09T11:17:02;4.10;;;1.15;;
61702;SDS011;47622;47.726;3.298;2022-09-09T11:25:23;3.28;;;0.90;;
61702;SDS011;47622;47.726;3.298;2022-09-09T11:28:06;5.07;;;1.05;;
61702;SDS011;47622;47.726;3.298;2022-09-09T11:41:43;8.68;;;1.25;;
61702;SDS011;47622;47.726;3.298;2022-09-09T11:44:10;3.95;;;1.90;;
61702;SDS011;47622;47.726;3.298;2022-09-09T11:46:37;7.15;;;1.15;;
61702;SDS011;47622;47.726;3.298;2022-09-09T11:49:05;10.32;;;1.60;;
61702;SDS011;47622;47.726;3.298;2022-09-09T11:51:46;2.35;;;0.80;;
61702;SDS011;47622;47.726;3.298;2022-09-09T11:56:50;4.80;;;1.00;;
61702;SDS011;47622;47.726;3.298;2022-09-09T11:59:22;3.83;;;1.25;;
61702;SDS011;47622;47.726;3.298;2022-09-09T12:01:57;6.18;;;0.98;;
61702;SDS011;47622;47.726;3.298;2022-09-09T12:12:05;2.75;;;0.75;;
61702;SDS011;47622;47.726;3.298;2022-09-09T12:14:42;8.27;;;1.38;;
61702;SDS011;47622;47.726;3.298;2022-09-09T12:17:20;4.47;;;0.98;;
61702;SDS011;47622;47.726;3.298;2022-09-09T12:19:48;6.45;;;1.17;;
61702;SDS011;47622;47.726;3.298;2022-09-09T12:28:18;4.65;;;1.27;;
61702;SDS011;47622;47.726;3.298;2022-09-09T12:33:36;4.53;;;1.10;;
61702;SDS011;47622;47.726;3.298;2022-09-09T12:36:11;6.72;;;1.10;;
61702;SDS011;47622;47.726;3.298;2022-09-09T12:41:18;4.35;;;1.35;;
61702;SDS011;47622;47.726;3.298;2022-09-09T12:43:45;7.05;;;1.05;;
61702;SDS011;47622;47.726;3.298;2022-09-09T12:46:18;4.07;;;1.10;;
61702;SDS011;47622;47.726;3.298;2022-09-09T12:48:51;6.75;;;1.73;;
61702;SDS011;47622;47.726;3.298;2022-09-09T12:51:27;4.88;;;1.25;;
61702;SDS011;47622;47.726;3.298;2022-09-09T12:53:56;4.88;;;1.17;;
61702;SDS011;47622;47.726;3.298;2022-09-09T12:56:24;3.55;;;1.00;;
61702;SDS011;47622;47.726;3.298;2022-09-09T12:58:54;5.70;;;1.30;;
61702;SDS011;47622;47.726;3.298;2022-09-09T13:01:23;2.97;;;1.00;;
61702;SDS011;47622;47.726;3.298;2022-09-09T13:03:54;4.35;;;1.02;;
61702;SDS011;47622;47.726;3.298;2022-09-09T13:06:30;2.70;;;0.88;;
61702;SDS011;47622;47.726;3.298;2022-09-09T13:08:58;3.60;;;0.90;;
61702;SDS011;47622;47.726;3.298;2022-09-09T13:13:54;6.68;;;1.20;;
61702;SDS011;47622;47.726;3.298;2022-09-09T13:18:50;4.13;;;1.20;;
61702;SDS011;47622;47.726;3.298;2022-09-09T13:21:16;5.07;;;1.08;;
61702;SDS011;47622;47.726;3.298;2022-09-09T13:23:42;4.35;;;1.17;;
61702;SDS011;47622;47.726;3.298;2022-09-09T13:26:32;5.18;;;1.13;;
61702;SDS011;47622;47.726;3.298;2022-09-09T13:29:17;2.92;;;0.90;;
61702;SDS011;47622;47.726;3.298;2022-09-09T13:31:44;3.85;;;1.33;;
61702;SDS011;47622;47.726;3.298;2022-09-09T13:34:22;3.17;;;0.70;;
61702;SDS011;47622;47.726;3.298;2022-09-09T13:36:53;4.03;;;0.93;;
61702;SDS011;47622;47.726;3.298;2022-09-09T13:39:32;4.28;;;0.93;;
61702;SDS011;47622;47.726;3.298;2022-09-09T13:41:59;3.78;;;1.10;;
61702;SDS011;47622;47.726;3.298;2022-09-09T13:44:32;4.57;;;0.90;;
61702;SDS011;47622;47.726;3.298;2022-09-09T13:47:04;4.13;;;1.40;;
61702;SDS011;47622;47.726;3.298;2022-09-09T13:49:41;7.50;;;1.23;;
61702;SDS011;47622;47.726;3.298;2022-09-09T13:52:14;3.30;;;0.95;;
61702;SDS011;47622;47.726;3.298;2022-09-09T13:54:43;3.40;;;0.98;;
61702;SDS011;47622;47.726;3.298;2022-09-09T13:57:23;3.25;;;1.00;;
61702;SDS011;47622;47.726;3.298;2022-09-09T13:59:51;6.18;;;1.05;;
61702;SDS011;47622;47.726;3.298;2022-09-09T14:02:17;4.70;;;1.20;;
61702;SDS011;47622;47.726;3.298;2022-09-09T14:04:44;3.03;;;0.70;;
61702;SDS011;47622;47.726;3.298;2022-09-09T14:07:13;4.05;;;0.90;;
61702;SDS011;47622;47.726;3.298;2022-09-09T14:09:41;3.63;;;0.90;;
61702;SDS011;47622;47.726;3.298;2022-09-09T14:12:10;3.53;;;0.90;;
61702;SDS011;47622;47.726;3.298;2022-09-09T14:14:37;3.25;;;0.90;;
61702;SDS011;47622;47.726;3.298;2022-09-09T14:17:03;3.13;;;0.90;;
61702;SDS011;47622;47.726;3.298;2022-09-09T14:19:29;3.38;;;0.77;;
61702;SDS011;47622;47.726;3.298;2022-09-09T14:21:56;5.90;;;1.20;;
61702;SDS011;47622;47.726;3.298;2022-09-09T14:24:22;4.95;;;1.40;;
61702;SDS011;47622;47.726;3.298;2022-09-09T14:26:48;3.33;;;0.90;;
61702;SDS011;47622;47.726;3.298;2022-09-09T14:29:14;5.03;;;0.90;;
61702;SDS011;47622;47.726;3.298;2022-09-09T14:31:40;4.15;;;1.08;;
61702;SDS011;47622;47.726;3.298;2022-09-09T14:34:06;6.22;;;1.23;;
61702;SDS011;47622;47.726;3.298;2022-09-09T14:36:31;4.00;;;0.80;;
61702;SDS011;47622;47.726;3.298;2022-09-09T14:38:57;4.28;;;0.95;;
61702;SDS011;47622;47.726;3.298;2022-09-09T14:41:23;5.70;;;1.10;;
61702;SDS011;47622;47.726;3.298;2022-09-09T14:43:50;3.85;;;1.08;;
61702;SDS011;47622;47.726;3.298;2022-09-09T14:46:17;5.55;;;1.00;;
61702;SDS011;47622;47.726;3.298;2022-09-09T14:48:44;4.47;;;1.10;;
61702;SDS011;47622;47.726;3.298;2022-09-09T14:51:21;4.03;;;1.48;;
61702;SDS011;47622;47.726;3.298;2022-09-09T14:53:50;4.53;;;1.20;;
61702;SDS011;47622;47.726;3.298;2022-09-09T14:56:18;3.55;;;1.08;;
61702;SDS011;47622;47.726;3.298;2022-09-09T14:58:47;4.10;;;1.20;;
61702;SDS011;47622;47.726;3.298;2022-09-09T15:01:14;3.78;;;1.00;;
61702;SDS011;47622;47.726;3.298;2022-09-09T15:03:42;5.75;;;1.50;;
61702;SDS011;47622;47.726;3.298;2022-09-09T15:06:13;5.32;;;1.00;;
61702;SDS011;47622;47.726;3.298;2022-09-09T15:08:43;5.75;;;1.13;;
61702;SDS011;47622;47.726;3.298;2022-09-09T15:11:10;4.47;;;1.00;;
61702;SDS011;47622;47.726;3.298;2022-09-09T15:13:38;3.33;;;0.90;;
61702;SDS011;47622;47.726;3.298;2022-09-09T15:16:05;2.67;;;0.98;;
61702;SDS011;47622;47.726;3.298;2022-09-09T15:18:32;5.43;;;0.80;;
61702;SDS011;47622;47.726;3.298;2022-09-09T15:21:01;4.97;;;1.40;;
61702;SDS011;47622;47.726;3.298;2022-09-09T15:23:33;3.42;;;1.10;;
61702;SDS011;47622;47.726;3.298;2022-09-09T15:26:00;2.45;;;0.85;;
61702;SDS011;47622;47.726;3.298;2022-09-09T15:28:27;2.08;;;0.90;;
61702;SDS011;47622;47.726;3.298;2022-09-09T15:30:53;3.03;;;0.90;;
61702;SDS011;47622;47.726;3.298;2022-09-09T15:33:19;4.70;;;1.20;;
61702;SDS011;47622;47.726;3.298;2022-09-09T15:35:46;2.35;;;0.90;;
61702;SDS011;47622;47.726;3.298;2022-09-09T15:38:12;3.95;;;1.10;;
61702;SDS011;47622;47.726;3.298;2022-09-09T15:40:39;2.58;;;0.90;;
61702;SDS011;47622;47.726;3.298;2022-09-09T15:43:05;4.95;;;1.00;;
61702;SDS011;47622;47.726;3.298;2022-09-09T15:45:32;3.25;;;0.90;;
61702;SDS011;47622;47.726;3.298;2022-09-09T15:47:59;3.45;;;0.95;;
61702;SDS011;47622;47.726;3.298;2022-09-09T15:50:25;4.47;;;1.08;;
61702;SDS011;47622;47.726;3.298;2022-09-09T15:52:51;3.50;;;1.10;;
61702;SDS011;47622;47.726;3.298;2022-09-09T15:55:18;5.38;;;1.20;;
61702;SDS011;47622;47.726;3.298;2022-09-09T15:57:45;4.32;;;1.30;;
61702;SDS011;47622;47.726;3.298;2022-09-09T16:00:11;2.38;;;0.85;;
61702;SDS011;47622;47.726;3.298;2022-09-09T16:02:38;3.40;;;1.00;;
61702;SDS011;47622;47.726;3.298;2022-09-09T16:05:04;3.72;;;0.90;;
61702;SDS011;47622;47.726;3.298;2022-09-09T16:07:31;6.38;;;1.45;;
61702;SDS011;47622;47.726;3.298;2022-09-09T16:09:57;4.28;;;0.88;;
61702;SDS011;47622;47.726;3.298;2022-09-09T16:12:23;2.35;;;0.82;;
61702;SDS011;47622;47.726;3.298;2022-09-09T16:14:48;1.95;;;1.10;;
61702;SDS011;47622;47.726;3.298;2022-09-09T16:17:14;4.78;;;1.48;;
61702;SDS011;47622;47.726;3.298;2022-09-09T16:19:40;2.83;;;0.90;;
61702;SDS011;47622;47.726;3.298;2022-09-09T16:22:06;4.68;;;0.80;;
61702;SDS011;47622;47.726;3.298;2022-09-09T16:24:32;1.48;;;0.90;;
61702;SDS011;47622;47.726;3.298;2022-09-09T16:26:58;4.45;;;1.00;;
61702;SDS011;47622;47.726;3.298;2022-09-09T16:29:24;4.75;;;0.88;;
61702;SDS011;47622;47.726;3.298;2022-09-09T16:31:52;6.38;;;1.08;;
61702;SDS011;47622;47.726;3.298;2022-09-09T16:34:18;2.20;;;0.80;;
61702;SDS011;47622;47.726;3.298;2022-09-09T16:36:45;4.18;;;0.88;;
61702;SDS011;47622;47.726;3.298;2022-09-09T16:39:13;2.88;;;0.90;;
61702;SDS011;47622;47.726;3.298;2022-09-09T16:41:42;3.60;;;0.95;;
61702;SDS011;47622;47.726;3.298;2022-09-09T16:44:10;3.03;;;0.90;;
61702;SDS011;47622;47.726;3.298;2022-09-09T16:46:38;5.57;;;1.13;;
61702;SDS011;47622;47.726;3.298;2022-09-09T16:49:06;4.07;;;1.30;;
61702;SDS011;47622;47.726;3.298;2022-09-09T16:51:34;4.57;;;1.10;;
61702;SDS011;47622;47.726;3.298;2022-09-09T16:54:03;2.88;;;1.05;;
61702;SDS011;47622;47.726;3.298;2022-09-09T16:56:35;1.35;;;0.80;;
61702;SDS011;47622;47.726;3.298;2022-09-09T16:59:03;4.35;;;1.00;;
61702;SDS011;47622;47.726;3.298;2022-09-09T17:01:32;5.60;;;0.95;;
61702;SDS011;47622;47.726;3.298;2022-09-09T17:04:07;3.95;;;0.85;;
61702;SDS011;47622;47.726;3.298;2022-09-09T17:06:34;4.82;;;0.95;;
61702;SDS011;47622;47.726;3.298;2022-09-09T17:09:04;5.95;;;0.80;;
61702;SDS011;47622;47.726;3.298;2022-09-09T17:11:31;2.50;;;0.73;;
61702;SDS011;47622;47.726;3.298;2022-09-09T17:13:58;3.47;;;0.70;;
61702;SDS011;47622;47.726;3.298;2022-09-09T17:16:26;5.22;;;1.20;;
61702;SDS011;47622;47.726;3.298;2022-09-09T17:18:54;2.17;;;0.70;;
61702;SDS011;47622;47.726;3.298;2022-09-09T17:21:22;4.88;;;0.98;;
61702;SDS011;47622;47.726;3.298;2022-09-09T17:23:50;3.35;;;0.77;;
61702;SDS011;47622;47.726;3.298;2022-09-09T17:26:18;3.22;;;1.10;;
61702;SDS011;47622;47.726;3.298;2022-09-09T17:28:45;6.43;;;1.08;;
61702;SDS011;47622;47.726;3.298;2022-09-09T17:31:11;2.65;;;0.90;;
61702;SDS011;47622;47.726;3.298;2022-09-09T17:33:40;4.50;;;0.80;;
61702;SDS011;47622;47.726;3.298;2022-09-09T17:36:09;5.35;;;1.08;;
61702;SDS011;47622;47.726;3.298;2022-09-09T17:38:36;3.35;;;0.98;;
61702;SDS011;47622;47.726;3.298;2022-09-09T17:41:03;1.73;;;0.88;;
61702;SDS011;47622;47.726;3.298;2022-09-09T17:43:32;2.55;;;0.95;;
61702;SDS011;47622;47.726;3.298;2022-09-09T17:46:10;4.05;;;1.00;;
61702;SDS011;47622;47.726;3.298;2022-09-09T17:48:41;4.50;;;1.42;;
61702;SDS011;47622;47.726;3.298;2022-09-09T17:51:11;7.00;;;1.00;;